sensor_id;sensor_type;location;lat;lon;timestamp;P1;durP1;ratioP1;P2;durP2;ratioP2
18296;SDS011;18066;52.106;5.534;2023-04-25T00:01:56;18.50;;;3.83;;
18296;SDS011;18066;52.106;5.534;2023-04-25T00:04:24;11.27;;;2.60;;
18296;SDS011;18066;52.106;5.534;2023-04-25T00:06:52;15.20;;;3.67;;
18296;SDS011;18066;52.106;5.534;2023-04-25T00:09:19;12.70;;;3.07;;
18296;SDS011;18066;52.106;5.534;2023-04-25T00:11:46;9.93;;;2.40;;
18296;SDS011;18066;52.106;5.534;2023-04-25T00:14:12;12.43;;;2.77;;
18296;SDS011;18066;52.106;5.534;2023-04-25T00:16:40;17.90;;;3.20;;
18296;SDS011;18066;52.106;5.534;2023-04-25T00:19:10;12.30;;;3.13;;
18296;SDS011;18066;52.106;5.534;2023-04-25T00:21:38;15.23;;;3.30;;
18296;SDS011;18066;52.106;5.534;2023-04-25T00:24:05;7.17;;;3.13;;
18296;SDS011;18066;52.106;5.534;2023-04-25T00:26:33;13.93;;;2.80;;
18296;SDS011;18066;52.106;5.534;2023-04-25T00:29:00;14.40;;;2.90;;
18296;SDS011;18066;52.106;5.534;2023-04-25T00:31:27;6.60;;;2.43;;
18296;SDS011;18066;52.106;5.534;2023-04-25T00:33:54;15.53;;;3.37;;
18296;SDS011;18066;52.106;5.534;2023-04-25T00:36:22;18.17;;;3.37;;
18296;SDS011;18066;52.106;5.534;2023-04-25T00:38:49;15.00;;;3.73;;
18296;SDS011;18066;52.106;5.534;2023-04-25T00:41:16;22.70;;;3.30;;
18296;SDS011;18066;52.106;5.534;2023-04-25T00:43:44;15.60;;;3.37;;
18296;SDS011;18066;52.106;5.534;2023-04-25T00:46:11;16.80;;;3.70;;
18296;SDS011;18066;52.106;5.534;2023-04-25T00:48:38;11.43;;;3.33;;
18296;SDS011;18066;52.106;5.534;2023-04-25T00:51:05;17.37;;;3.37;;
18296;SDS011;18066;52.106;5.534;2023-04-25T00:53:34;17.40;;;3.33;;
18296;SDS011;18066;52.106;5.534;2023-04-25T00:56:01;22.37;;;3.33;;
18296;SDS011;18066;52.106;5.534;2023-04-25T00:58:29;14.63;;;3.43;;
18296;SDS011;18066;52.106;5.534;2023-04-25T01:00:55;11.50;;;3.73;;
18296;SDS011;18066;52.106;5.534;2023-04-25T01:03:23;18.47;;;3.30;;
18296;SDS011;18066;52.106;5.534;2023-04-25T01:05:51;13.70;;;3.30;;
18296;SDS011;18066;52.106;5.534;2023-04-25T01:08:18;13.00;;;3.83;;
18296;SDS011;18066;52.106;5.534;2023-04-25T01:10:48;15.10;;;2.97;;
18296;SDS011;18066;52.106;5.534;2023-04-25T01:13:15;16.57;;;3.30;;
18296;SDS011;18066;52.106;5.534;2023-04-25T01:15:42;15.73;;;3.47;;
18296;SDS011;18066;52.106;5.534;2023-04-25T01:18:08;9.73;;;3.40;;
18296;SDS011;18066;52.106;5.534;2023-04-25T01:20:36;7.97;;;3.57;;
18296;SDS011;18066;52.106;5.534;2023-04-25T01:23:06;12.33;;;2.83;;
18296;SDS011;18066;52.106;5.534;2023-04-25T01:25:32;7.90;;;3.07;;
18296;SDS011;18066;52.106;5.534;2023-04-25T01:28:00;17.13;;;3.50;;
18296;SDS011;18066;52.106;5.534;2023-04-25T01:30:27;8.37;;;3.43;;
18296;SDS011;18066;52.106;5.534;2023-04-25T01:32:55;15.07;;;3.60;;
18296;SDS011;18066;52.106;5.534;2023-04-25T01:35:22;18.50;;;3.20;;
18296;SDS011;18066;52.106;5.534;2023-04-25T01:37:50;13.97;;;3.93;;
18296;SDS011;18066;52.106;5.534;2023-04-25T01:40:18;11.43;;;3.27;;
18296;SDS011;18066;52.106;5.534;2023-04-25T01:42:47;10.27;;;2.97;;
18296;SDS011;18066;52.106;5.534;2023-04-25T01:45:14;11.47;;;3.10;;
18296;SDS011;18066;52.106;5.534;2023-04-25T01:47:41;13.30;;;3.10;;
18296;SDS011;18066;52.106;5.534;2023-04-25T01:50:11;15.53;;;2.80;;
18296;SDS011;18066;52.106;5.534;2023-04-25T01:52:38;10.03;;;2.47;;
18296;SDS011;18066;52.106;5.534;2023-04-25T01:55:06;16.93;;;3.70;;
18296;SDS011;18066;52.106;5.534;2023-04-25T01:57:34;11.90;;;3.27;;
18296;SDS011;18066;52.106;5.534;2023-04-25T02:00:02;11.30;;;3.20;;
18296;SDS011;18066;52.106;5.534;2023-04-25T02:02:31;7.97;;;2.77;;
18296;SDS011;18066;52.106;5.534;2023-04-25T02:04:58;15.13;;;2.90;;
18296;SDS011;18066;52.106;5.534;2023-04-25T02:07:25;13.67;;;2.80;;
18296;SDS011;18066;52.106;5.534;2023-04-25T02:09:52;13.17;;;3.63;;
18296;SDS011;18066;52.106;5.534;2023-04-25T02:12:19;11.37;;;2.77;;
18296;SDS011;18066;52.106;5.534;2023-04-25T02:14:47;10.17;;;2.53;;
18296;SDS011;18066;52.106;5.534;2023-04-25T02:17:14;9.83;;;2.43;;
18296;SDS011;18066;52.106;5.534;2023-04-25T02:19:42;11.53;;;3.30;;
18296;SDS011;18066;52.106;5.534;2023-04-25T02:22:09;13.93;;;3.10;;
18296;SDS011;18066;52.106;5.534;2023-04-25T02:24:36;17.40;;;3.17;;
18296;SDS011;18066;52.106;5.534;2023-04-25T02:27:03;12.67;;;3.07;;
18296;SDS011;18066;52.106;5.534;2023-04-25T02:29:30;13.57;;;3.00;;
18296;SDS011;18066;52.106;5.534;2023-04-25T02:31:58;11.23;;;3.00;;
18296;SDS011;18066;52.106;5.534;2023-04-25T02:34:25;11.23;;;2.60;;
18296;SDS011;18066;52.106;5.534;2023-04-25T02:36:52;16.47;;;2.83;;
18296;SDS011;18066;52.106;5.534;2023-04-25T02:39:19;8.17;;;2.83;;
18296;SDS011;18066;52.106;5.534;2023-04-25T02:41:47;15.07;;;3.23;;
18296;SDS011;18066;52.106;5.534;2023-04-25T02:44:14;8.70;;;2.57;;
18296;SDS011;18066;52.106;5.534;2023-04-25T02:46:40;7.37;;;2.60;;
18296;SDS011;18066;52.106;5.534;2023-04-25T02:49:09;11.50;;;3.33;;
18296;SDS011;18066;52.106;5.534;2023-04-25T02:51:35;9.17;;;2.77;;
18296;SDS011;18066;52.106;5.534;2023-04-25T02:54:02;15.53;;;2.93;;
18296;SDS011;18066;52.106;5.534;2023-04-25T02:56:30;6.23;;;2.30;;
18296;SDS011;18066;52.106;5.534;2023-04-25T02:58:56;7.97;;;2.40;;
18296;SDS011;18066;52.106;5.534;2023-04-25T03:01:23;11.17;;;2.97;;
18296;SDS011;18066;52.106;5.534;2023-04-25T03:03:50;12.77;;;3.27;;
18296;SDS011;18066;52.106;5.534;2023-04-25T03:06:18;10.67;;;3.27;;
18296;SDS011;18066;52.106;5.534;2023-04-25T03:08:45;10.80;;;2.87;;
18296;SDS011;18066;52.106;5.534;2023-04-25T03:11:12;8.50;;;3.10;;
18296;SDS011;18066;52.106;5.534;2023-04-25T03:13:39;8.93;;;2.47;;
18296;SDS011;18066;52.106;5.534;2023-04-25T03:16:05;14.53;;;3.03;;
18296;SDS011;18066;52.106;5.534;2023-04-25T03:18:32;11.33;;;2.83;;
18296;SDS011;18066;52.106;5.534;2023-04-25T03:20:59;13.47;;;2.57;;
18296;SDS011;18066;52.106;5.534;2023-04-25T03:23:27;13.60;;;3.10;;
18296;SDS011;18066;52.106;5.534;2023-04-25T03:25:54;12.70;;;3.00;;
18296;SDS011;18066;52.106;5.534;2023-04-25T03:28:21;14.17;;;3.20;;
18296;SDS011;18066;52.106;5.534;2023-04-25T03:30:48;9.20;;;3.00;;
18296;SDS011;18066;52.106;5.534;2023-04-25T03:33:15;11.87;;;2.90;;
18296;SDS011;18066;52.106;5.534;2023-04-25T03:35:42;10.83;;;2.77;;
18296;SDS011;18066;52.106;5.534;2023-04-25T03:38:09;5.83;;;2.20;;
18296;SDS011;18066;52.106;5.534;2023-04-25T03:40:37;19.10;;;2.80;;
18296;SDS011;18066;52.106;5.534;2023-04-25T03:43:03;11.37;;;2.90;;
18296;SDS011;18066;52.106;5.534;2023-04-25T03:45:30;10.53;;;3.40;;
18296;SDS011;18066;52.106;5.534;2023-04-25T03:47:57;16.20;;;2.70;;
18296;SDS011;18066;52.106;5.534;2023-04-25T03:50:24;9.83;;;3.07;;
18296;SDS011;18066;52.106;5.534;2023-04-25T03:52:51;11.70;;;3.93;;
18296;SDS011;18066;52.106;5.534;2023-04-25T03:55:18;11.83;;;3.10;;
18296;SDS011;18066;52.106;5.534;2023-04-25T03:57:46;13.43;;;3.53;;
18296;SDS011;18066;52.106;5.534;2023-04-25T04:00:13;12.60;;;2.80;;
18296;SDS011;18066;52.106;5.534;2023-04-25T04:02:40;15.87;;;3.07;;
18296;SDS011;18066;52.106;5.534;2023-04-25T04:05:07;16.57;;;3.27;;
18296;SDS011;18066;52.106;5.534;2023-04-25T04:07:34;9.07;;;3.27;;
18296;SDS011;18066;52.106;5.534;2023-04-25T04:10:05;13.10;;;3.03;;
18296;SDS011;18066;52.106;5.534;2023-04-25T04:12:32;15.73;;;3.30;;
18296;SDS011;18066;52.106;5.534;2023-04-25T04:15:01;14.43;;;3.30;;
18296;SDS011;18066;52.106;5.534;2023-04-25T04:17:28;14.00;;;3.73;;
18296;SDS011;18066;52.106;5.534;2023-04-25T04:19:55;8.03;;;2.63;;
18296;SDS011;18066;52.106;5.534;2023-04-25T04:22:22;10.23;;;2.87;;
18296;SDS011;18066;52.106;5.534;2023-04-25T04:24:49;19.33;;;3.53;;
18296;SDS011;18066;52.106;5.534;2023-04-25T04:27:17;9.50;;;3.57;;
18296;SDS011;18066;52.106;5.534;2023-04-25T04:29:44;11.30;;;2.73;;
18296;SDS011;18066;52.106;5.534;2023-04-25T04:32:12;14.87;;;3.20;;
18296;SDS011;18066;52.106;5.534;2023-04-25T04:34:39;10.43;;;2.10;;
18296;SDS011;18066;52.106;5.534;2023-04-25T04:37:07;10.90;;;2.67;;
18296;SDS011;18066;52.106;5.534;2023-04-25T04:39:34;12.50;;;2.83;;
18296;SDS011;18066;52.106;5.534;2023-04-25T04:42:02;10.37;;;2.37;;
18296;SDS011;18066;52.106;5.534;2023-04-25T04:44:30;7.80;;;2.10;;
18296;SDS011;18066;52.106;5.534;2023-04-25T04:46:59;11.23;;;2.27;;
18296;SDS011;18066;52.106;5.534;2023-04-25T04:49:28;10.70;;;2.20;;
18296;SDS011;18066;52.106;5.534;2023-04-25T04:51:55;5.67;;;1.77;;
18296;SDS011;18066;52.106;5.534;2023-04-25T04:54:21;10.57;;;2.03;;
18296;SDS011;18066;52.106;5.534;2023-04-25T04:56:48;6.23;;;1.50;;
18296;SDS011;18066;52.106;5.534;2023-04-25T04:59:15;11.60;;;2.10;;
18296;SDS011;18066;52.106;5.534;2023-04-25T05:01:42;8.83;;;1.97;;
18296;SDS011;18066;52.106;5.534;2023-04-25T05:04:08;7.43;;;1.97;;
18296;SDS011;18066;52.106;5.534;2023-04-25T05:06:37;8.00;;;1.60;;
18296;SDS011;18066;52.106;5.534;2023-04-25T05:09:03;6.70;;;1.30;;
18296;SDS011;18066;52.106;5.534;2023-04-25T05:11:30;5.47;;;1.67;;
18296;SDS011;18066;52.106;5.534;2023-04-25T05:13:57;12.73;;;2.00;;
18296;SDS011;18066;52.106;5.534;2023-04-25T05:16:24;4.70;;;1.60;;
18296;SDS011;18066;52.106;5.534;2023-04-25T05:18:51;5.83;;;1.40;;
18296;SDS011;18066;52.106;5.534;2023-04-25T05:21:17;5.37;;;1.30;;
18296;SDS011;18066;52.106;5.534;2023-04-25T05:23:47;5.87;;;1.80;;
18296;SDS011;18066;52.106;5.534;2023-04-25T05:26:14;4.80;;;1.50;;
18296;SDS011;18066;52.106;5.534;2023-04-25T05:28:41;6.00;;;1.40;;
18296;SDS011;18066;52.106;5.534;2023-04-25T05:31:08;5.53;;;1.30;;
18296;SDS011;18066;52.106;5.534;2023-04-25T05:33:35;7.20;;;1.77;;
18296;SDS011;18066;52.106;5.534;2023-04-25T05:36:02;6.20;;;1.77;;
18296;SDS011;18066;52.106;5.534;2023-04-25T05:38:30;11.77;;;1.63;;
18296;SDS011;18066;52.106;5.534;2023-04-25T05:40:58;6.10;;;1.70;;
18296;SDS011;18066;52.106;5.534;2023-04-25T05:43:25;11.93;;;2.00;;
18296;SDS011;18066;52.106;5.534;2023-04-25T05:45:52;4.50;;;1.47;;
18296;SDS011;18066;52.106;5.534;2023-04-25T05:48:19;6.97;;;1.70;;
18296;SDS011;18066;52.106;5.534;2023-04-25T05:50:45;4.13;;;1.50;;
18296;SDS011;18066;52.106;5.534;2023-04-25T05:53:12;8.83;;;1.60;;
18296;SDS011;18066;52.106;5.534;2023-04-25T05:55:39;8.53;;;1.73;;
18296;SDS011;18066;52.106;5.534;2023-04-25T05:58:07;5.17;;;1.30;;
18296;SDS011;18066;52.106;5.534;2023-04-25T06:00:34;9.70;;;2.50;;
18296;SDS011;18066;52.106;5.534;2023-04-25T06:03:01;6.23;;;1.60;;
18296;SDS011;18066;52.106;5.534;2023-04-25T06:05:28;9.47;;;1.73;;
18296;SDS011;18066;52.106;5.534;2023-04-25T06:07:54;12.40;;;1.90;;
18296;SDS011;18066;52.106;5.534;2023-04-25T06:10:21;7.13;;;1.57;;
18296;SDS011;18066;52.106;5.534;2023-04-25T06:12:48;5.00;;;1.37;;
18296;SDS011;18066;52.106;5.534;2023-04-25T06:15:16;7.67;;;1.50;;
18296;SDS011;18066;52.106;5.534;2023-04-25T06:17:43;5.00;;;1.67;;
18296;SDS011;18066;52.106;5.534;2023-04-25T06:20:10;5.37;;;1.50;;
18296;SDS011;18066;52.106;5.534;2023-04-25T06:22:37;5.50;;;1.43;;
18296;SDS011;18066;52.106;5.534;2023-04-25T06:25:05;7.50;;;1.60;;
18296;SDS011;18066;52.106;5.534;2023-04-25T06:27:32;13.43;;;2.13;;
18296;SDS011;18066;52.106;5.534;2023-04-25T06:29:59;4.13;;;1.70;;
18296;SDS011;18066;52.106;5.534;2023-04-25T06:32:27;6.43;;;1.43;;
18296;SDS011;18066;52.106;5.534;2023-04-25T06:34:54;6.33;;;1.63;;
18296;SDS011;18066;52.106;5.534;2023-04-25T06:37:21;9.67;;;2.13;;
18296;SDS011;18066;52.106;5.534;2023-04-25T06:39:48;7.10;;;1.50;;
18296;SDS011;18066;52.106;5.534;2023-04-25T06:42:15;7.53;;;1.40;;
18296;SDS011;18066;52.106;5.534;2023-04-25T06:44:42;5.33;;;1.23;;
18296;SDS011;18066;52.106;5.534;2023-04-25T06:47:08;7.30;;;1.83;;
18296;SDS011;18066;52.106;5.534;2023-04-25T06:49:36;6.13;;;1.60;;
18296;SDS011;18066;52.106;5.534;2023-04-25T06:52:03;4.93;;;1.33;;
18296;SDS011;18066;52.106;5.534;2023-04-25T06:54:30;8.07;;;1.60;;
18296;SDS011;18066;52.106;5.534;2023-04-25T06:56:57;8.13;;;1.70;;
18296;SDS011;18066;52.106;5.534;2023-04-25T06:59:25;8.80;;;1.57;;
18296;SDS011;18066;52.106;5.534;2023-04-25T07:01:52;8.97;;;2.17;;
18296;SDS011;18066;52.106;5.534;2023-04-25T07:04:19;5.93;;;1.50;;
18296;SDS011;18066;52.106;5.534;2023-04-25T07:06:47;8.53;;;1.73;;
18296;SDS011;18066;52.106;5.534;2023-04-25T07:09:14;8.77;;;1.77;;
18296;SDS011;18066;52.106;5.534;2023-04-25T07:11:41;13.10;;;1.90;;
18296;SDS011;18066;52.106;5.534;2023-04-25T07:14:08;5.67;;;1.37;;
18296;SDS011;18066;52.106;5.534;2023-04-25T07:16:35;16.03;;;2.07;;
18296;SDS011;18066;52.106;5.534;2023-04-25T07:19:02;5.17;;;1.13;;
18296;SDS011;18066;52.106;5.534;2023-04-25T07:21:28;9.03;;;1.90;;
18296;SDS011;18066;52.106;5.534;2023-04-25T07:23:58;10.03;;;2.20;;
18296;SDS011;18066;52.106;5.534;2023-04-25T07:26:25;9.17;;;1.60;;
18296;SDS011;18066;52.106;5.534;2023-04-25T07:28:52;9.90;;;1.80;;
18296;SDS011;18066;52.106;5.534;2023-04-25T07:31:19;5.47;;;1.20;;
18296;SDS011;18066;52.106;5.534;2023-04-25T07:33:46;8.83;;;1.90;;
18296;SDS011;18066;52.106;5.534;2023-04-25T07:36:13;9.43;;;1.70;;
18296;SDS011;18066;52.106;5.534;2023-04-25T07:38:41;5.63;;;1.73;;
18296;SDS011;18066;52.106;5.534;2023-04-25T07:41:09;6.43;;;1.43;;
18296;SDS011;18066;52.106;5.534;2023-04-25T07:43:36;10.07;;;1.40;;
18296;SDS011;18066;52.106;5.534;2023-04-25T07:46:03;6.63;;;1.53;;
18296;SDS011;18066;52.106;5.534;2023-04-25T07:48:30;7.23;;;1.50;;
18296;SDS011;18066;52.106;5.534;2023-04-25T07:50:56;5.60;;;1.27;;
18296;SDS011;18066;52.106;5.534;2023-04-25T07:53:23;8.50;;;1.17;;
18296;SDS011;18066;52.106;5.534;2023-04-25T07:55:50;4.50;;;1.20;;
18296;SDS011;18066;52.106;5.534;2023-04-25T07:58:19;6.93;;;1.53;;
18296;SDS011;18066;52.106;5.534;2023-04-25T08:00:46;6.10;;;1.17;;
18296;SDS011;18066;52.106;5.534;2023-04-25T08:03:13;8.77;;;1.53;;
18296;SDS011;18066;52.106;5.534;2023-04-25T08:05:40;7.80;;;1.40;;
18296;SDS011;18066;52.106;5.534;2023-04-25T08:08:07;7.03;;;1.70;;
18296;SDS011;18066;52.106;5.534;2023-04-25T08:10:34;7.10;;;1.20;;
18296;SDS011;18066;52.106;5.534;2023-04-25T08:13:01;14.17;;;1.70;;
18296;SDS011;18066;52.106;5.534;2023-04-25T08:15:29;9.30;;;1.33;;
18296;SDS011;18066;52.106;5.534;2023-04-25T08:17:56;9.10;;;2.00;;
18296;SDS011;18066;52.106;5.534;2023-04-25T08:20:23;11.93;;;2.70;;
18296;SDS011;18066;52.106;5.534;2023-04-25T08:22:50;13.93;;;1.50;;
18296;SDS011;18066;52.106;5.534;2023-04-25T08:25:16;3.20;;;1.03;;
18296;SDS011;18066;52.106;5.534;2023-04-25T08:27:43;6.20;;;1.07;;
18296;SDS011;18066;52.106;5.534;2023-04-25T08:30:10;9.83;;;1.57;;
18296;SDS011;18066;52.106;5.534;2023-04-25T08:32:39;8.93;;;1.20;;
18296;SDS011;18066;52.106;5.534;2023-04-25T08:35:06;6.57;;;1.27;;
18296;SDS011;18066;52.106;5.534;2023-04-25T08:37:33;5.23;;;1.20;;
18296;SDS011;18066;52.106;5.534;2023-04-25T08:40:01;6.87;;;1.30;;
18296;SDS011;18066;52.106;5.534;2023-04-25T08:42:32;7.27;;;1.40;;
18296;SDS011;18066;52.106;5.534;2023-04-25T08:45:00;8.93;;;1.37;;
18296;SDS011;18066;52.106;5.534;2023-04-25T08:47:28;7.53;;;0.87;;
18296;SDS011;18066;52.106;5.534;2023-04-25T08:50:00;6.20;;;1.10;;
18296;SDS011;18066;52.106;5.534;2023-04-25T08:52:32;5.53;;;1.10;;
18296;SDS011;18066;52.106;5.534;2023-04-25T08:55:04;9.03;;;1.13;;
18296;SDS011;18066;52.106;5.534;2023-04-25T08:57:33;6.60;;;1.00;;
18296;SDS011;18066;52.106;5.534;2023-04-25T09:00:00;3.63;;;1.00;;
18296;SDS011;18066;52.106;5.534;2023-04-25T09:02:28;3.97;;;1.20;;
18296;SDS011;18066;52.106;5.534;2023-04-25T09:04:55;4.93;;;1.47;;
18296;SDS011;18066;52.106;5.534;2023-04-25T09:07:23;5.17;;;1.13;;
18296;SDS011;18066;52.106;5.534;2023-04-25T09:09:50;6.50;;;1.03;;
18296;SDS011;18066;52.106;5.534;2023-04-25T09:12:18;2.30;;;0.73;;
18296;SDS011;18066;52.106;5.534;2023-04-25T09:15:00;4.60;;;0.97;;
18296;SDS011;18066;52.106;5.534;2023-04-25T09:17:30;8.50;;;1.43;;
18296;SDS011;18066;52.106;5.534;2023-04-25T09:20:04;5.87;;;1.50;;
18296;SDS011;18066;52.106;5.534;2023-04-25T09:22:34;7.20;;;1.60;;
18296;SDS011;18066;52.106;5.534;2023-04-25T09:25:02;5.17;;;1.10;;
18296;SDS011;18066;52.106;5.534;2023-04-25T09:27:31;3.47;;;1.10;;
18296;SDS011;18066;52.106;5.534;2023-04-25T09:29:58;8.03;;;1.40;;
18296;SDS011;18066;52.106;5.534;2023-04-25T09:32:26;1.83;;;0.90;;
18296;SDS011;18066;52.106;5.534;2023-04-25T09:34:54;8.93;;;1.20;;
18296;SDS011;18066;52.106;5.534;2023-04-25T09:37:22;4.70;;;0.67;;
18296;SDS011;18066;52.106;5.534;2023-04-25T09:39:52;4.77;;;0.93;;
18296;SDS011;18066;52.106;5.534;2023-04-25T09:42:21;6.70;;;1.10;;
18296;SDS011;18066;52.106;5.534;2023-04-25T09:44:49;8.67;;;1.20;;
18296;SDS011;18066;52.106;5.534;2023-04-25T09:47:18;7.37;;;0.90;;
18296;SDS011;18066;52.106;5.534;2023-04-25T09:49:46;8.33;;;1.30;;
18296;SDS011;18066;52.106;5.534;2023-04-25T09:52:14;6.77;;;1.10;;
18296;SDS011;18066;52.106;5.534;2023-04-25T09:54:41;5.03;;;1.43;;
18296;SDS011;18066;52.106;5.534;2023-04-25T09:57:13;9.10;;;1.37;;
18296;SDS011;18066;52.106;5.534;2023-04-25T09:59:44;3.33;;;1.20;;
18296;SDS011;18066;52.106;5.534;2023-04-25T10:02:12;2.57;;;0.70;;
18296;SDS011;18066;52.106;5.534;2023-04-25T10:04:40;5.40;;;1.03;;
18296;SDS011;18066;52.106;5.534;2023-04-25T10:07:08;3.70;;;1.00;;
18296;SDS011;18066;52.106;5.534;2023-04-25T10:09:36;5.77;;;1.03;;
18296;SDS011;18066;52.106;5.534;2023-04-25T10:12:04;6.67;;;1.10;;
18296;SDS011;18066;52.106;5.534;2023-04-25T10:14:33;4.70;;;0.80;;
18296;SDS011;18066;52.106;5.534;2023-04-25T10:17:01;7.07;;;1.20;;
18296;SDS011;18066;52.106;5.534;2023-04-25T10:19:28;4.97;;;1.07;;
18296;SDS011;18066;52.106;5.534;2023-04-25T10:22:06;6.00;;;1.00;;
18296;SDS011;18066;52.106;5.534;2023-04-25T10:24:34;5.40;;;0.80;;
18296;SDS011;18066;52.106;5.534;2023-04-25T10:27:02;2.90;;;1.17;;
18296;SDS011;18066;52.106;5.534;2023-04-25T10:29:30;5.30;;;1.47;;
18296;SDS011;18066;52.106;5.534;2023-04-25T10:31:58;5.03;;;1.00;;
18296;SDS011;18066;52.106;5.534;2023-04-25T10:34:37;6.00;;;1.00;;
18296;SDS011;18066;52.106;5.534;2023-04-25T10:37:05;5.97;;;1.20;;
18296;SDS011;18066;52.106;5.534;2023-04-25T10:39:35;6.20;;;1.53;;
18296;SDS011;18066;52.106;5.534;2023-04-25T10:42:04;8.77;;;1.43;;
18296;SDS011;18066;52.106;5.534;2023-04-25T10:44:32;3.53;;;0.80;;
18296;SDS011;18066;52.106;5.534;2023-04-25T10:47:01;6.23;;;1.53;;
18296;SDS011;18066;52.106;5.534;2023-04-25T10:49:31;3.23;;;0.83;;
18296;SDS011;18066;52.106;5.534;2023-04-25T10:52:12;6.10;;;1.60;;
18296;SDS011;18066;52.106;5.534;2023-04-25T10:54:41;4.33;;;1.17;;
18296;SDS011;18066;52.106;5.534;2023-04-25T10:59:57;7.00;;;1.00;;
18296;SDS011;18066;52.106;5.534;2023-04-25T11:02:27;3.67;;;0.77;;
18296;SDS011;18066;52.106;5.534;2023-04-25T11:04:54;4.50;;;1.10;;
18296;SDS011;18066;52.106;5.534;2023-04-25T11:07:23;7.00;;;1.27;;
18296;SDS011;18066;52.106;5.534;2023-04-25T11:09:57;2.37;;;0.70;;
18296;SDS011;18066;52.106;5.534;2023-04-25T11:12:27;3.63;;;0.80;;
18296;SDS011;18066;52.106;5.534;2023-04-25T11:14:58;6.47;;;1.17;;
18296;SDS011;18066;52.106;5.534;2023-04-25T11:17:27;2.87;;;0.80;;
18296;SDS011;18066;52.106;5.534;2023-04-25T11:19:54;4.10;;;0.77;;
18296;SDS011;18066;52.106;5.534;2023-04-25T11:22:22;6.50;;;1.20;;
18296;SDS011;18066;52.106;5.534;2023-04-25T11:24:49;7.30;;;1.00;;
18296;SDS011;18066;52.106;5.534;2023-04-25T11:27:16;6.37;;;1.47;;
18296;SDS011;18066;52.106;5.534;2023-04-25T11:29:43;6.13;;;1.30;;
18296;SDS011;18066;52.106;5.534;2023-04-25T11:32:12;6.40;;;1.13;;
18296;SDS011;18066;52.106;5.534;2023-04-25T11:34:43;1.70;;;0.70;;
18296;SDS011;18066;52.106;5.534;2023-04-25T11:37:11;3.87;;;1.03;;
18296;SDS011;18066;52.106;5.534;2023-04-25T11:39:39;7.53;;;1.40;;
18296;SDS011;18066;52.106;5.534;2023-04-25T11:42:10;4.00;;;0.70;;
18296;SDS011;18066;52.106;5.534;2023-04-25T11:44:37;4.57;;;0.80;;
18296;SDS011;18066;52.106;5.534;2023-04-25T11:47:04;3.27;;;1.00;;
18296;SDS011;18066;52.106;5.534;2023-04-25T11:49:31;4.67;;;1.17;;
18296;SDS011;18066;52.106;5.534;2023-04-25T11:51:59;7.90;;;1.30;;
18296;SDS011;18066;52.106;5.534;2023-04-25T11:54:26;3.40;;;0.90;;
18296;SDS011;18066;52.106;5.534;2023-04-25T11:56:53;3.83;;;1.37;;
18296;SDS011;18066;52.106;5.534;2023-04-25T11:59:22;7.27;;;1.30;;
18296;SDS011;18066;52.106;5.534;2023-04-25T12:01:50;5.10;;;0.90;;
18296;SDS011;18066;52.106;5.534;2023-04-25T12:04:18;3.80;;;0.97;;
18296;SDS011;18066;52.106;5.534;2023-04-25T12:06:46;2.97;;;0.87;;
18296;SDS011;18066;52.106;5.534;2023-04-25T12:09:16;3.33;;;1.20;;
18296;SDS011;18066;52.106;5.534;2023-04-25T12:11:44;3.43;;;1.67;;
18296;SDS011;18066;52.106;5.534;2023-04-25T12:14:12;6.40;;;1.37;;
18296;SDS011;18066;52.106;5.534;2023-04-25T12:16:48;7.93;;;1.73;;
18296;SDS011;18066;52.106;5.534;2023-04-25T12:19:16;6.33;;;1.20;;
18296;SDS011;18066;52.106;5.534;2023-04-25T12:21:44;5.57;;;1.63;;
18296;SDS011;18066;52.106;5.534;2023-04-25T12:24:11;3.73;;;1.10;;
18296;SDS011;18066;52.106;5.534;2023-04-25T12:26:47;4.00;;;1.20;;
18296;SDS011;18066;52.106;5.534;2023-04-25T12:29:15;13.97;;;1.40;;
18296;SDS011;18066;52.106;5.534;2023-04-25T12:31:43;6.57;;;1.40;;
18296;SDS011;18066;52.106;5.534;2023-04-25T12:34:10;3.13;;;1.10;;
18296;SDS011;18066;52.106;5.534;2023-04-25T12:36:37;6.17;;;1.53;;
18296;SDS011;18066;52.106;5.534;2023-04-25T12:39:03;9.67;;;1.20;;
18296;SDS011;18066;52.106;5.534;2023-04-25T12:41:30;2.47;;;0.90;;
18296;SDS011;18066;52.106;5.534;2023-04-25T12:43:58;3.87;;;0.93;;
18296;SDS011;18066;52.106;5.534;2023-04-25T12:46:25;3.23;;;0.73;;
18296;SDS011;18066;52.106;5.534;2023-04-25T12:48:52;5.73;;;1.20;;
18296;SDS011;18066;52.106;5.534;2023-04-25T12:51:20;5.20;;;1.37;;
18296;SDS011;18066;52.106;5.534;2023-04-25T12:53:49;5.43;;;1.17;;
18296;SDS011;18066;52.106;5.534;2023-04-25T12:56:17;7.53;;;1.13;;
18296;SDS011;18066;52.106;5.534;2023-04-25T12:58:44;4.73;;;1.10;;
18296;SDS011;18066;52.106;5.534;2023-04-25T13:01:12;4.23;;;0.80;;
18296;SDS011;18066;52.106;5.534;2023-04-25T13:03:39;7.17;;;1.30;;
18296;SDS011;18066;52.106;5.534;2023-04-25T13:06:06;6.07;;;1.10;;
18296;SDS011;18066;52.106;5.534;2023-04-25T13:08:33;2.97;;;1.00;;
18296;SDS011;18066;52.106;5.534;2023-04-25T13:11:01;4.20;;;0.80;;
18296;SDS011;18066;52.106;5.534;2023-04-25T13:13:28;4.03;;;1.00;;
18296;SDS011;18066;52.106;5.534;2023-04-25T13:15:56;6.43;;;0.80;;
18296;SDS011;18066;52.106;5.534;2023-04-25T13:18:24;3.33;;;0.70;;
18296;SDS011;18066;52.106;5.534;2023-04-25T13:20:51;4.47;;;0.60;;
18296;SDS011;18066;52.106;5.534;2023-04-25T13:23:18;3.07;;;0.97;;
18296;SDS011;18066;52.106;5.534;2023-04-25T13:25:46;3.63;;;0.70;;
18296;SDS011;18066;52.106;5.534;2023-04-25T13:28:13;2.33;;;0.80;;
18296;SDS011;18066;52.106;5.534;2023-04-25T13:30:40;3.53;;;0.93;;
18296;SDS011;18066;52.106;5.534;2023-04-25T13:33:07;6.90;;;1.20;;
18296;SDS011;18066;52.106;5.534;2023-04-25T13:35:36;3.63;;;0.90;;
18296;SDS011;18066;52.106;5.534;2023-04-25T13:38:04;4.93;;;1.40;;
18296;SDS011;18066;52.106;5.534;2023-04-25T13:40:31;3.80;;;1.20;;
18296;SDS011;18066;52.106;5.534;2023-04-25T13:42:58;6.10;;;1.53;;
18296;SDS011;18066;52.106;5.534;2023-04-25T13:45:25;7.10;;;1.43;;
18296;SDS011;18066;52.106;5.534;2023-04-25T13:47:52;4.70;;;1.00;;
18296;SDS011;18066;52.106;5.534;2023-04-25T13:50:18;7.03;;;0.87;;
18296;SDS011;18066;52.106;5.534;2023-04-25T13:52:47;6.13;;;0.90;;
18296;SDS011;18066;52.106;5.534;2023-04-25T13:55:13;6.13;;;1.17;;
18296;SDS011;18066;52.106;5.534;2023-04-25T13:57:40;7.10;;;1.23;;
18296;SDS011;18066;52.106;5.534;2023-04-25T14:00:07;2.50;;;0.93;;
18296;SDS011;18066;52.106;5.534;2023-04-25T14:02:35;3.50;;;1.00;;
18296;SDS011;18066;52.106;5.534;2023-04-25T14:05:02;5.70;;;1.10;;
18296;SDS011;18066;52.106;5.534;2023-04-25T14:07:30;5.07;;;1.40;;
18296;SDS011;18066;52.106;5.534;2023-04-25T14:09:58;7.17;;;0.90;;
18296;SDS011;18066;52.106;5.534;2023-04-25T14:12:25;4.57;;;1.10;;
18296;SDS011;18066;52.106;5.534;2023-04-25T14:14:52;7.53;;;1.10;;
18296;SDS011;18066;52.106;5.534;2023-04-25T14:17:19;2.03;;;0.77;;
18296;SDS011;18066;52.106;5.534;2023-04-25T14:19:45;6.10;;;1.10;;
18296;SDS011;18066;52.106;5.534;2023-04-25T14:22:13;5.13;;;1.00;;
18296;SDS011;18066;52.106;5.534;2023-04-25T14:24:40;4.93;;;1.00;;
18296;SDS011;18066;52.106;5.534;2023-04-25T14:27:08;4.40;;;1.07;;
18296;SDS011;18066;52.106;5.534;2023-04-25T14:29:35;7.50;;;1.30;;
18296;SDS011;18066;52.106;5.534;2023-04-25T14:32:02;4.47;;;1.27;;
18296;SDS011;18066;52.106;5.534;2023-04-25T14:34:30;5.73;;;1.00;;
18296;SDS011;18066;52.106;5.534;2023-04-25T14:36:57;3.70;;;0.90;;
18296;SDS011;18066;52.106;5.534;2023-04-25T14:39:23;5.27;;;1.07;;
18296;SDS011;18066;52.106;5.534;2023-04-25T14:41:50;5.87;;;1.10;;
18296;SDS011;18066;52.106;5.534;2023-04-25T14:44:18;3.90;;;1.00;;
18296;SDS011;18066;52.106;5.534;2023-04-25T14:46:45;5.57;;;1.03;;
18296;SDS011;18066;52.106;5.534;2023-04-25T14:49:12;2.53;;;0.80;;